createdAt,value
2018-02-14T00:00:04.574Z,17.23
2018-02-14T00:02:32.118Z,19.30
2018-02-14T00:05:00.381Z,18.83
2018-02-14T00:07:27.921Z,19.30
2018-02-14T00:09:56.391Z,20.30
2018-02-14T00:12:23.932Z,21.30
2018-02-14T00:14:51.463Z,19.80
2018-02-14T00:17:18.970Z,20.33
2018-02-14T00:19:46.503Z,17.40
2018-02-14T00:22:13.999Z,16.73
2018-02-14T00:24:41.548Z,16.80
2018-02-14T00:27:09.087Z,17.80
2018-02-14T00:29:36.578Z,23.37
2018-02-14T00:32:04.131Z,21.30
2018-02-14T00:34:31.696Z,17.80
2018-02-14T00:36:59.203Z,15.50
2018-02-14T00:39:27.262Z,17.23
2018-02-14T00:41:54.759Z,19.90
2018-02-14T00:44:22.263Z,18.80
2018-02-14T00:46:50.224Z,18.13
2018-02-14T00:49:18.486Z,18.17
2018-02-14T00:51:45.986Z,15.40
2018-02-14T00:54:14.153Z,15.93
2018-02-14T00:56:41.660Z,18.63
2018-02-14T00:59:09.147Z,15.47
2018-02-14T01:01:37.435Z,15.97
2018-02-14T01:04:04.929Z,15.53
2018-02-14T01:06:32.440Z,19.27
2018-02-14T01:09:00.718Z,17.97
2018-02-14T01:11:28.450Z,19.13
2018-02-14T01:13:55.951Z,17.47
2018-02-14T01:16:23.459Z,17.23
2018-02-14T01:18:50.983Z,16.80
2018-02-14T01:21:18.483Z,16.47
2018-02-14T01:23:46.064Z,17.00
2018-02-14T01:26:14.432Z,14.73
2018-02-14T01:28:41.934Z,17.63
2018-02-14T01:31:09.467Z,18.40
2018-02-14T01:33:37.730Z,14.27
2018-02-14T01:36:06.027Z,15.80
2018-02-14T01:38:33.570Z,17.03
2018-02-14T01:41:01.838Z,15.00
2018-02-14T01:43:30.108Z,15.23
2018-02-14T01:45:57.654Z,16.27
2018-02-14T01:48:25.793Z,14.90
2018-02-14T01:50:53.311Z,14.60
2018-02-14T01:53:21.607Z,13.43
2018-02-14T01:55:49.103Z,14.70
2018-02-14T01:58:16.652Z,14.03
2018-02-14T02:00:44.156Z,13.70
2018-02-14T02:03:12.435Z,15.37
2018-02-14T02:05:39.975Z,13.10
2018-02-14T02:08:07.466Z,13.70
2018-02-14T02:10:35.723Z,14.23
2018-02-14T02:13:03.255Z,13.13
2018-02-14T02:15:30.802Z,13.67
2018-02-14T02:17:59.062Z,12.43
2018-02-14T02:20:26.576Z,12.83
2018-02-14T02:22:54.159Z,13.00
2018-02-14T02:25:21.660Z,13.37
2018-02-14T02:27:49.155Z,13.60
2018-02-14T02:30:17.455Z,12.87
2018-02-14T02:32:44.945Z,13.80
2018-02-14T02:35:12.432Z,15.67
2018-02-14T02:37:40.072Z,14.23
2018-02-14T02:40:19.478Z,13.57
2018-02-14T02:42:47.107Z,14.60
2018-02-14T02:45:15.439Z,15.90
2018-02-14T02:47:42.939Z,14.30
2018-02-14T02:50:11.575Z,14.07
2018-02-14T02:52:39.087Z,14.20
2018-02-14T02:55:07.346Z,15.13
2018-02-14T02:57:34.945Z,15.47
2018-02-14T03:00:02.453Z,14.70
2018-02-14T03:02:29.942Z,14.93
2018-02-14T03:04:58.288Z,14.40
2018-02-14T03:07:25.797Z,15.97
2018-02-14T03:09:53.299Z,13.67
2018-02-14T03:12:20.838Z,13.90
2018-02-14T03:14:48.332Z,14.23
2018-02-14T03:17:15.827Z,15.50
2018-02-14T03:19:43.365Z,15.40
2018-02-14T03:22:11.621Z,12.87
2018-02-14T03:24:39.127Z,13.83
2018-02-14T03:27:06.650Z,13.57
2018-02-14T03:29:34.167Z,14.30
2018-02-14T03:32:01.683Z,13.30
2018-02-14T03:34:29.183Z,13.50
2018-02-14T03:36:56.709Z,15.40
2018-02-14T03:39:24.198Z,13.57
2018-02-14T03:41:51.711Z,14.90
2018-02-14T03:44:19.205Z,14.50
2018-02-14T03:46:46.729Z,12.33
2018-02-14T03:49:14.232Z,12.10
2018-02-14T03:51:41.763Z,14.80
2018-02-14T03:54:09.403Z,14.33
2018-02-14T03:56:37.010Z,13.73
2018-02-14T03:59:04.548Z,14.93
2018-02-14T04:01:32.067Z,14.67
2018-02-14T04:04:00.337Z,15.37
2018-02-14T04:06:28.647Z,13.90
2018-02-14T04:08:57.003Z,13.97
2018-02-14T04:11:25.305Z,14.63
2018-02-14T04:13:52.809Z,14.00
2018-02-14T04:16:20.306Z,14.37
2018-02-14T04:18:47.847Z,13.63
2018-02-14T04:21:16.116Z,14.77
2018-02-14T04:23:43.649Z,14.37
2018-02-14T04:26:11.583Z,14.50
2018-02-14T04:28:39.093Z,15.07
2018-02-14T04:31:06.998Z,15.63
2018-02-14T04:33:34.491Z,20.40
2018-02-14T04:36:02.009Z,15.10
2018-02-14T04:38:31.626Z,14.30
2018-02-14T04:40:59.155Z,15.37
2018-02-14T04:43:27.409Z,18.50
2018-02-14T04:45:54.954Z,19.77
2018-02-14T04:48:22.458Z,20.50
2018-02-14T04:50:50.742Z,19.20
2018-02-14T04:53:18.268Z,15.97
2018-02-14T04:55:45.790Z,15.10
2018-02-14T04:58:13.315Z,14.63
2018-02-14T05:00:40.834Z,15.43
2018-02-14T05:03:08.375Z,17.10
2018-02-14T05:05:35.868Z,16.00
2018-02-14T05:08:04.155Z,17.07
2018-02-14T05:10:31.705Z,15.53
2018-02-14T05:12:59.976Z,16.87
2018-02-14T05:15:27.467Z,16.50
2018-02-14T05:17:55.013Z,23.67
2018-02-14T05:20:23.629Z,20.13
2018-02-14T05:22:51.153Z,21.13
2018-02-14T05:25:22.733Z,24.57
2018-02-14T05:27:50.303Z,18.90
2018-02-14T05:30:17.834Z,21.17
2018-02-14T05:32:45.333Z,23.50
2018-02-14T05:35:12.864Z,23.60
2018-02-14T05:37:40.392Z,20.63
2018-02-14T05:40:07.944Z,19.53
2018-02-14T05:42:35.581Z,18.60
2018-02-14T05:45:03.088Z,20.57
2018-02-14T05:47:30.652Z,19.77
2018-02-14T05:49:58.167Z,16.80
2018-02-14T05:52:25.715Z,18.20
2018-02-14T05:54:53.936Z,18.30
2018-02-14T05:57:21.441Z,21.87
2018-02-14T05:59:48.940Z,20.47
2018-02-14T06:02:16.503Z,18.90
2018-02-14T06:04:44.044Z,19.90
2018-02-14T06:07:12.344Z,19.47
2018-02-14T06:09:39.879Z,18.17
2018-02-14T06:12:08.197Z,18.33
2018-02-14T06:14:35.736Z,20.73
2018-02-14T06:17:03.274Z,18.40
2018-02-14T06:19:31.590Z,38.20
2018-02-14T06:21:59.111Z,32.30
2018-02-14T06:24:27.448Z,19.30
2018-02-14T06:26:55.002Z,16.00
2018-02-14T06:29:22.528Z,15.03
2018-02-14T06:31:50.032Z,22.70
2018-02-14T06:34:18.638Z,20.80
2018-02-14T06:36:47.754Z,17.93
2018-02-14T06:39:15.299Z,17.33
2018-02-14T06:41:43.595Z,16.60
2018-02-14T06:44:11.195Z,16.90
2018-02-14T06:46:38.698Z,17.63
2018-02-14T06:49:07.001Z,16.87
2018-02-14T06:51:34.993Z,19.20
2018-02-14T06:54:02.541Z,24.00
2018-02-14T06:56:30.044Z,18.87
2018-02-14T06:58:57.698Z,20.87
2018-02-14T07:01:25.211Z,18.70
2018-02-14T07:03:52.738Z,20.13
2018-02-14T07:06:21.114Z,17.73
2018-02-14T07:08:49.428Z,19.07
2018-02-14T07:11:16.960Z,43.53
2018-02-14T07:13:45.276Z,38.57
2018-02-14T07:16:12.784Z,19.53
2018-02-14T07:18:40.311Z,18.33
2018-02-14T07:21:08.128Z,19.10
2018-02-14T07:23:35.637Z,19.43
2018-02-14T07:26:03.159Z,20.20
2018-02-14T07:28:30.783Z,19.30
2018-02-14T07:30:58.287Z,18.90
2018-02-14T07:33:25.801Z,18.27
2018-02-14T07:35:54.103Z,18.57
2018-02-14T07:38:21.672Z,18.43
2018-02-14T07:40:49.177Z,17.53
2018-02-14T07:43:16.755Z,17.33
2018-02-14T07:45:45.058Z,15.73
2018-02-14T07:48:12.581Z,15.60
2018-02-14T07:50:40.860Z,16.63
2018-02-14T07:53:09.123Z,19.37
2018-02-14T07:55:36.747Z,18.07
2018-02-14T07:58:04.258Z,18.27
2018-02-14T08:00:32.534Z,20.57
2018-02-14T08:03:00.923Z,16.83
2018-02-14T08:05:29.188Z,18.80
2018-02-14T08:07:57.452Z,19.20
2018-02-14T08:10:24.994Z,19.90
2018-02-14T08:12:53.798Z,20.07
2018-02-14T08:15:21.299Z,20.50
2018-02-14T08:17:48.890Z,21.03
2018-02-14T08:20:16.385Z,21.87
2018-02-14T08:22:44.688Z,21.70
2018-02-14T08:25:12.218Z,23.10
2018-02-14T08:27:40.511Z,20.30
2018-02-14T08:30:08.779Z,19.60
2018-02-14T08:32:37.654Z,19.90
2018-02-14T08:35:05.952Z,19.80
2018-02-14T08:37:33.464Z,19.00
2018-02-14T08:40:00.988Z,20.40
2018-02-14T08:42:28.502Z,19.37
2018-02-14T08:44:56.940Z,20.90
2018-02-14T08:47:24.439Z,19.93
2018-02-14T08:49:52.748Z,22.30
2018-02-14T08:52:20.305Z,21.60
2018-02-14T08:54:47.807Z,23.60
2018-02-14T08:57:15.331Z,20.07
2018-02-14T08:59:43.395Z,19.57
2018-02-14T09:02:10.928Z,21.07
2018-02-14T09:04:39.195Z,21.27
2018-02-14T09:07:06.744Z,21.30
2018-02-14T09:09:34.245Z,20.33
2018-02-14T09:12:01.776Z,18.93
2018-02-14T09:14:30.044Z,21.67
2018-02-14T09:16:57.630Z,22.00
2018-02-14T09:19:25.914Z,20.80
2018-02-14T09:21:56.793Z,19.80
2018-02-14T09:24:25.241Z,21.40
2018-02-14T09:26:52.767Z,18.30
2018-02-14T09:29:21.044Z,18.97
2018-02-14T09:31:49.337Z,20.47
2018-02-14T09:34:17.599Z,22.70
2018-02-14T09:36:45.892Z,21.37
2018-02-14T09:39:13.423Z,19.90
2018-02-14T09:41:41.721Z,22.37
2018-02-14T09:44:09.220Z,21.80
2018-02-14T09:46:36.767Z,22.43
2018-02-14T09:49:04.287Z,21.70
2018-02-14T09:51:32.564Z,23.50
2018-02-14T09:54:00.856Z,21.97
2018-02-14T09:56:28.352Z,20.57
2018-02-14T09:58:55.849Z,22.17
2018-02-14T10:01:24.157Z,20.17
2018-02-14T10:03:51.656Z,20.17
2018-02-14T10:06:19.168Z,20.53
2018-02-14T10:08:46.690Z,18.00
2018-02-14T10:11:14.183Z,19.20
2018-02-14T10:13:41.751Z,18.90
2018-02-14T10:16:09.277Z,17.47
2018-02-14T10:18:37.600Z,17.70
2018-02-14T10:21:05.105Z,18.97
2018-02-14T10:23:33.401Z,18.80
2018-02-14T10:26:00.925Z,17.30
2018-02-14T10:28:28.454Z,17.50
2018-02-14T10:30:55.974Z,18.43
2018-02-14T10:33:23.563Z,14.90
2018-02-14T10:35:51.058Z,13.90
2018-02-14T10:38:18.548Z,14.10
2018-02-14T10:40:47.138Z,14.90
2018-02-14T10:43:14.690Z,14.07
2018-02-14T10:45:42.222Z,15.70
2018-02-14T10:48:11.483Z,15.43
2018-02-14T10:50:39.009Z,15.63
2018-02-14T10:53:06.539Z,15.30
2018-02-14T10:55:34.056Z,16.33
2018-02-14T10:58:01.662Z,13.80
2018-02-14T11:00:34.813Z,13.00
2018-02-14T11:03:07.974Z,15.07
2018-02-14T11:05:35.474Z,14.50
2018-02-14T11:08:02.994Z,12.90
2018-02-14T11:10:30.619Z,13.70
2018-02-14T11:12:58.143Z,12.87
2018-02-14T11:15:26.522Z,14.40
2018-02-14T11:17:54.078Z,42.03
2018-02-14T11:20:21.572Z,18.83
2018-02-14T11:22:49.097Z,13.87
2018-02-14T11:25:16.660Z,14.10
2018-02-14T11:27:44.152Z,14.27
2018-02-14T11:30:12.458Z,13.50
2018-02-14T11:32:40.034Z,13.00
2018-02-14T11:35:07.631Z,13.00
2018-02-14T11:37:35.119Z,14.60
2018-02-14T11:40:03.447Z,13.97
2018-02-14T11:42:32.332Z,16.13
2018-02-14T11:44:59.865Z,17.70
2018-02-14T11:47:27.611Z,15.03
2018-02-14T11:49:55.162Z,15.30
2018-02-14T11:52:23.438Z,14.97
2018-02-14T11:54:51.831Z,13.60
2018-02-14T11:57:19.407Z,15.63
2018-02-14T11:59:46.907Z,16.70
2018-02-14T12:02:14.408Z,14.47
2018-02-14T12:04:41.953Z,18.20
2018-02-14T12:07:10.226Z,14.53
2018-02-14T12:09:37.743Z,14.33
2018-02-14T12:12:05.269Z,14.20
2018-02-14T12:14:32.805Z,13.40
2018-02-14T12:17:01.109Z,15.27
2018-02-14T12:19:28.683Z,13.20
2018-02-14T12:21:56.231Z,15.20
2018-02-14T12:24:23.775Z,15.37
2018-02-14T12:26:51.363Z,14.43
2018-02-14T12:29:18.901Z,13.17
2018-02-14T12:31:46.416Z,13.80
2018-02-14T12:34:13.945Z,14.87
2018-02-14T12:36:41.475Z,14.20
2018-02-14T12:39:08.973Z,12.60
2018-02-14T12:41:36.486Z,13.63
2018-02-14T12:44:04.031Z,13.23
2018-02-14T12:46:31.558Z,14.30
2018-02-14T12:48:59.167Z,14.13
2018-02-14T12:51:26.711Z,13.23
2018-02-14T12:53:54.215Z,14.13
2018-02-14T12:56:21.712Z,13.03
2018-02-14T12:58:50.014Z,12.90
2018-02-14T13:01:17.509Z,13.37
2018-02-14T13:03:45.012Z,13.70
2018-02-14T13:06:13.343Z,13.30
2018-02-14T13:08:40.868Z,13.40
2018-02-14T13:11:08.376Z,13.60
2018-02-14T13:13:35.940Z,12.73
2018-02-14T13:16:03.475Z,13.30
2018-02-14T13:18:31.778Z,12.77
2018-02-14T13:21:00.088Z,14.70
2018-02-14T13:23:28.439Z,13.03
2018-02-14T13:25:56.744Z,13.20
2018-02-14T13:28:24.257Z,14.20
2018-02-14T13:30:51.815Z,13.90
2018-02-14T13:33:19.329Z,13.13
2018-02-14T13:35:46.871Z,12.57
2018-02-14T13:38:14.414Z,13.30
2018-02-14T13:40:42.719Z,12.07
2018-02-14T13:43:10.244Z,11.73
2018-02-14T13:45:38.647Z,11.77
2018-02-14T13:48:06.167Z,18.83
2018-02-14T13:50:33.676Z,15.60
2018-02-14T13:53:01.213Z,12.70
2018-02-14T13:55:29.471Z,13.10
2018-02-14T13:57:57.780Z,11.90
2018-02-14T14:00:25.306Z,13.20
2018-02-14T14:02:53.591Z,13.87
2018-02-14T14:05:21.859Z,12.50
2018-02-14T14:07:50.151Z,12.60
2018-02-14T14:10:18.418Z,13.70
2018-02-14T14:12:46.723Z,13.30
2018-02-14T14:15:15.092Z,14.17
2018-02-14T14:17:42.608Z,11.13
2018-02-14T14:20:10.148Z,11.87
2018-02-14T14:22:37.702Z,12.07
2018-02-14T14:25:05.992Z,11.43
2018-02-14T14:27:33.532Z,11.73
2018-02-14T14:30:01.035Z,13.73
2018-02-14T14:32:29.307Z,11.93
2018-02-14T14:34:57.604Z,11.30
2018-02-14T14:37:25.749Z,12.90
2018-02-14T14:39:53.295Z,12.43
2018-02-14T14:42:20.821Z,13.00
2018-02-14T14:44:48.368Z,13.40
2018-02-14T14:47:15.899Z,10.90
2018-02-14T14:49:44.175Z,13.17
2018-02-14T14:52:12.471Z,11.50
2018-02-14T14:54:41.141Z,12.33
2018-02-14T14:57:09.411Z,12.00
2018-02-14T14:59:37.717Z,13.07
2018-02-14T15:02:05.233Z,11.97
2018-02-14T15:04:32.738Z,12.60
2018-02-14T15:07:00.259Z,12.07
2018-02-14T15:09:28.578Z,11.50
2018-02-14T15:11:57.904Z,12.33
2018-02-14T15:14:26.178Z,12.90
2018-02-14T15:16:53.706Z,11.77
2018-02-14T15:19:21.211Z,12.07
2018-02-14T15:21:48.733Z,11.83
2018-02-14T15:24:16.283Z,14.00
2018-02-14T15:26:43.787Z,12.07
2018-02-14T15:29:11.410Z,11.63
2018-02-14T15:31:38.987Z,11.40
2018-02-14T15:34:06.493Z,13.23
2018-02-14T15:36:34.821Z,12.40
2018-02-14T15:39:02.353Z,11.90
2018-02-14T15:41:29.866Z,15.23
2018-02-14T15:43:57.455Z,29.23
2018-02-14T15:46:24.973Z,11.93
2018-02-14T15:48:52.950Z,12.33
2018-02-14T15:51:20.916Z,12.30
2018-02-14T15:53:49.229Z,12.30
2018-02-14T15:56:17.744Z,12.30
2018-02-14T15:58:46.304Z,12.80
2018-02-14T16:01:13.867Z,11.00
2018-02-14T16:03:41.577Z,10.97
2018-02-14T16:06:10.043Z,12.77
2018-02-14T16:08:37.561Z,11.57
2018-02-14T16:11:05.191Z,11.70
2018-02-14T16:13:33.539Z,11.63
2018-02-14T16:16:01.069Z,30.03
2018-02-14T16:18:28.994Z,12.97
2018-02-14T16:20:57.319Z,14.00
2018-02-14T16:23:24.812Z,13.43
2018-02-14T16:25:52.311Z,12.13
2018-02-14T16:28:19.886Z,11.20
2018-02-14T16:30:48.640Z,10.43
2018-02-14T16:33:16.930Z,10.70
2018-02-14T16:35:44.476Z,10.70
2018-02-14T16:38:13.432Z,11.77
2018-02-14T16:40:41.233Z,10.73
2018-02-14T16:43:09.629Z,10.30
2018-02-14T16:45:37.145Z,10.10
2018-02-14T16:48:04.649Z,11.23
2018-02-14T16:50:32.641Z,12.20
2018-02-14T16:53:00.137Z,11.43
2018-02-14T16:55:27.639Z,10.90
2018-02-14T16:57:55.187Z,10.93
2018-02-14T17:00:23.260Z,11.60
2018-02-14T17:02:50.779Z,21.23
2018-02-14T17:05:18.349Z,11.43
2018-02-14T17:07:46.610Z,11.07
2018-02-14T17:10:14.673Z,10.43
2018-02-14T17:12:42.210Z,15.13
2018-02-14T17:15:09.717Z,13.50
2018-02-14T17:17:37.988Z,11.07
2018-02-14T17:20:06.315Z,12.13
2018-02-14T17:22:33.821Z,10.40
2018-02-14T17:25:02.142Z,10.17
2018-02-14T17:27:29.675Z,9.43
2018-02-14T17:29:57.931Z,10.47
2018-02-14T17:32:26.241Z,10.50
2018-02-14T17:34:53.787Z,10.03
2018-02-14T17:37:21.328Z,9.10
2018-02-14T17:39:49.592Z,10.50
2018-02-14T17:42:17.137Z,9.60
2018-02-14T17:44:44.671Z,10.77
2018-02-14T17:47:12.189Z,9.97
2018-02-14T17:49:40.483Z,11.13
2018-02-14T17:52:08.020Z,10.13
2018-02-14T17:54:36.378Z,10.60
2018-02-14T17:57:03.875Z,11.33
2018-02-14T17:59:31.399Z,12.07
2018-02-14T18:01:58.906Z,12.07
2018-02-14T18:04:26.467Z,9.93
2018-02-14T18:06:54.841Z,10.90
2018-02-14T18:09:22.349Z,10.70
2018-02-14T18:11:50.393Z,10.13
2018-02-14T18:14:19.099Z,10.93
2018-02-14T18:16:47.400Z,12.57
2018-02-14T18:19:15.708Z,19.43
2018-02-14T18:21:43.288Z,10.00
2018-02-14T18:24:11.576Z,11.17
2018-02-14T18:26:39.091Z,10.37
2018-02-14T18:29:06.644Z,10.57
2018-02-14T18:31:34.137Z,10.60
2018-02-14T18:37:16.330Z,9.87
2018-02-14T18:39:43.844Z,11.33
2018-02-14T18:42:11.430Z,10.83
2018-02-14T18:44:39.819Z,10.43
2018-02-14T18:47:07.636Z,9.90
2018-02-14T18:49:35.182Z,9.90
2018-02-14T18:52:02.684Z,10.10
2018-02-14T18:54:30.992Z,11.17
2018-02-14T18:56:58.515Z,10.73
2018-02-14T18:59:26.802Z,11.67
2018-02-14T19:01:54.307Z,11.63
2018-02-14T19:04:22.735Z,11.07
2018-02-14T19:06:51.012Z,9.80
2018-02-14T19:09:19.632Z,10.30
2018-02-14T19:11:48.023Z,10.23
2018-02-14T19:14:15.541Z,10.57
2018-02-14T19:16:43.816Z,9.10
2018-02-14T19:19:11.402Z,10.07
2018-02-14T19:21:38.897Z,10.40
2018-02-14T19:24:06.396Z,10.60
2018-02-14T19:26:33.941Z,10.40
2018-02-14T19:29:01.482Z,9.00
2018-02-14T19:31:29.058Z,11.10
2018-02-14T19:33:57.325Z,10.47
2018-02-14T19:36:25.585Z,8.90
2018-02-14T19:38:53.129Z,8.77
2018-02-14T19:41:20.651Z,9.17
2018-02-14T19:43:48.175Z,10.70
2018-02-14T19:46:16.496Z,10.10
2018-02-14T19:48:44.048Z,18.40
2018-02-14T19:51:11.755Z,30.77
2018-02-14T19:53:39.272Z,14.63
2018-02-14T19:56:06.773Z,10.17
2018-02-14T19:58:34.360Z,9.90
2018-02-14T20:01:02.632Z,9.90
2018-02-14T20:03:30.917Z,10.60
2018-02-14T20:05:59.233Z,12.33
2018-02-14T20:08:26.749Z,11.30
2018-02-14T20:10:54.339Z,10.97
2018-02-14T20:13:21.849Z,10.17
2018-02-14T20:15:49.346Z,10.60
2018-02-14T20:18:17.585Z,10.10
2018-02-14T20:20:45.184Z,11.20
2018-02-14T20:23:12.700Z,9.73
2018-02-14T20:25:40.203Z,10.97
2018-02-14T20:28:07.777Z,10.80
2018-02-14T20:30:35.267Z,9.43
2018-02-14T20:33:02.761Z,11.50
2018-02-14T20:35:30.334Z,10.40
2018-02-14T20:37:58.248Z,9.77
2018-02-14T20:40:25.806Z,9.90
2018-02-14T20:42:53.352Z,10.27
2018-02-14T20:45:20.887Z,11.00
2018-02-14T20:47:48.422Z,21.00
2018-02-14T20:50:15.963Z,11.07
2018-02-14T20:52:44.991Z,10.20
2018-02-14T20:55:12.488Z,10.30
2018-02-14T20:57:40.088Z,10.13
2018-02-14T21:00:07.587Z,10.93
2018-02-14T21:02:35.115Z,11.47
2018-02-14T21:05:02.619Z,10.17
2018-02-14T21:07:30.178Z,10.93
2018-02-14T21:09:57.683Z,11.27
2018-02-14T21:12:25.229Z,10.57
2018-02-14T21:14:53.518Z,10.50
2018-02-14T21:17:21.060Z,10.53
2018-02-14T21:19:48.599Z,10.87
2018-02-14T21:22:16.131Z,12.80
2018-02-14T21:24:43.627Z,12.23
2018-02-14T21:27:11.138Z,11.40
2018-02-14T21:29:38.660Z,10.47
2018-02-14T21:32:06.168Z,10.90
2018-02-14T21:34:33.687Z,10.23
2018-02-14T21:37:01.217Z,10.87
2018-02-14T21:39:29.493Z,10.00
2018-02-14T21:41:57.758Z,11.03
2018-02-14T21:44:25.288Z,9.60
2018-02-14T21:46:52.812Z,10.80
2018-02-14T21:49:20.916Z,11.00
2018-02-14T21:51:48.444Z,10.40
2018-02-14T21:54:15.972Z,10.20
2018-02-14T21:56:44.240Z,10.63
2018-02-14T21:59:11.767Z,11.20
2018-02-14T22:01:39.280Z,11.67
2018-02-14T22:04:07.608Z,12.00
2018-02-14T22:06:35.169Z,10.43
2018-02-14T22:09:02.681Z,11.13
2018-02-14T22:11:30.221Z,12.70
2018-02-14T22:13:58.491Z,11.93
2018-02-14T22:16:25.983Z,12.60
2018-02-14T22:18:53.512Z,12.73
2018-02-14T22:21:21.774Z,13.00
2018-02-14T22:23:49.309Z,14.70
2018-02-14T22:26:16.844Z,19.80
2018-02-14T22:28:44.344Z,19.50
2018-02-14T22:31:11.868Z,16.40
2018-02-14T22:33:39.355Z,15.87
2018-02-14T22:36:06.903Z,15.13
2018-02-14T22:38:34.448Z,14.13
2018-02-14T22:41:01.975Z,13.30
2018-02-14T22:43:29.523Z,11.63
2018-02-14T22:45:57.819Z,12.47
2018-02-14T22:48:25.347Z,15.60
2018-02-14T22:50:53.704Z,12.97
2018-02-14T22:53:21.259Z,13.00
2018-02-14T22:55:48.763Z,16.27
2018-02-14T22:58:16.256Z,14.53
2018-02-14T23:00:43.799Z,15.10
2018-02-14T23:03:11.336Z,13.50
2018-02-14T23:05:38.856Z,12.70
2018-02-14T23:08:06.370Z,12.63
2018-02-14T23:10:33.921Z,13.27
2018-02-14T23:13:01.423Z,12.80
2018-02-14T23:15:29.079Z,12.90
2018-02-14T23:17:57.719Z,14.40
2018-02-14T23:20:25.265Z,14.70
2018-02-14T23:22:55.807Z,12.03
2018-02-14T23:25:23.336Z,15.90
2018-02-14T23:27:50.834Z,16.37
2018-02-14T23:30:18.383Z,17.40
2018-02-14T23:32:45.896Z,15.53
2018-02-14T23:35:13.452Z,14.00
2018-02-14T23:37:40.953Z,15.73
2018-02-14T23:40:08.548Z,15.97
2018-02-14T23:42:36.988Z,14.83
2018-02-14T23:45:04.636Z,14.57
2018-02-14T23:47:32.183Z,14.80
2018-02-14T23:49:59.675Z,12.07
2018-02-14T23:52:27.207Z,13.23
2018-02-14T23:54:55.508Z,14.23
2018-02-14T23:57:23.027Z,14.03
2018-02-14T23:59:50.583Z,15.57
